Time,TemperatureF,DewpointF,PressureIn,WindDirection,WindDirectionDegrees,WindSpeedMPH,WindSpeedGustMPH,Humidity,HourlyPrecipIn,Conditions,Clouds,dailyrainin,SoftwareType,DateUTC
2013-03-15 00:00:00,21.6,7.6,29.85,WNW,283,0.0,5.0,54,0.00,,,0.00,WeatherCatV1.11B39,2013-03-15 04:00:00,
2013-03-15 00:01:00,21.6,7.6,29.85,WNW,283,0.0,4.0,54,0.00,,,0.00,WeatherCatV1.11B39,2013-03-15 04:01:00,
2013-03-15 00:06:00,21.4,7.4,29.85,WNW,287,0.0,3.0,54,0.00,,,0.00,WeatherCatV1.11B39,2013-03-15 04:06:00,
2013-03-15 00:11:00,21.5,7.5,29.85,WNW,287,0.0,0.0,54,0.00,,,0.00,WeatherCatV1.11B39,2013-03-15 04:11:00,
2013-03-15 00:16:00,21.4,7.8,29.85,WNW,288,0.0,0.0,55,0.00,,,0.00,WeatherCatV1.11B39,2013-03-15 04:16:00,
2013-03-15 00:21:00,21.6,8.0,29.85,WNW,289,0.0,0.0,55,0.00,,,0.00,WeatherCatV1.11B39,2013-03-15 04:21:00,
2013-03-15 00:26:00,21.6,8.0,29.85,WNW,287,0.0,0.0,55,0.00,,,0.00,WeatherCatV1.11B39,2013-03-15 04:26:00,
2013-03-15 00:31:00,21.6,8.4,29.84,NW,305,0.0,0.0,56,0.00,,,0.00,WeatherCatV1.11B39,2013-03-15 04:31:00,
2013-03-15 00:36:00,21.6,8.4,29.85,WNW,282,4.0,6.0,56,0.00,,,0.00,WeatherCatV1.11B39,2013-03-15 04:36:00,
2013-03-15 00:41:00,21.7,8.5,29.85,West,280,0.0,0.0,56,0.00,,,0.00,WeatherCatV1.11B39,2013-03-15 04:41:00,
2013-03-15 00:46:00,21.6,8.4,29.85,West,280,0.0,0.0,56,0.00,,,0.00,WeatherCatV1.11B39,2013-03-15 04:46:00,
2013-03-15 00:51:00,21.6,8.4,29.85,WNW,297,0.0,0.0,56,0.00,,,0.00,WeatherCatV1.11B39,2013-03-15 04:51:00,
2013-03-15 00:56:00,21.6,8.8,29.85,North,353,0.0,0.0,57,0.00,,,0.00,WeatherCatV1.11B39,2013-03-15 04:56:00,
2013-03-15 01:01:00,21.6,8.8,29.85,NW,322,0.0,0.0,57,0.00,,,0.00,WeatherCatV1.11B39,2013-03-15 05:01:00,
2013-03-15 01:06:00,21.6,8.4,29.85,WNW,301,0.0,0.0,56,0.00,,,0.00,WeatherCatV1.11B39,2013-03-15 05:06:00,
2013-03-15 01:11:00,21.6,8.8,29.85,WNW,287,0.0,10.0,57,0.00,,,0.00,WeatherCatV1.11B39,2013-03-15 05:11:00,
2013-03-15 01:16:00,21.6,8.8,29.85,WNW,292,0.0,3.0,57,0.00,,,0.00,WeatherCatV1.11B39,2013-03-15 05:16:00,
2013-03-15 01:21:00,21.6,8.8,29.86,WNW,294,0.0,1.0,57,0.00,,,0.00,WeatherCatV1.11B39,2013-03-15 05:21:00,
2013-03-15 01:26:00,21.6,9.1,29.86,WNW,286,0.0,8.0,58,0.00,,,0.00,WeatherCatV1.11B39,2013-03-15 05:26:00,
2013-03-15 01:31:00,21.6,9.1,29.85,WNW,287,0.0,3.0,58,0.00,,,0.00,WeatherCatV1.11B39,2013-03-15 05:31:00,
2013-03-15 01:36:00,21.6,8.8,29.85,WNW,292,0.0,0.0,57,0.00,,,0.00,WeatherCatV1.11B39,2013-03-15 05:36:00,
2013-03-15 01:41:00,21.6,8.8,29.86,WNW,293,0.0,0.0,57,0.00,,,0.00,WeatherCatV1.11B39,2013-03-15 05:41:00,
2013-03-15 01:46:00,21.6,8.8,29.86,WNW,294,0.0,0.0,57,0.00,,,0.00,WeatherCatV1.11B39,2013-03-15 05:46:00,
2013-03-15 01:51:00,21.6,9.1,29.86,WNW,292,0.0,5.0,58,0.00,,,0.00,WeatherCatV1.11B39,2013-03-15 05:51:00,
2013-03-15 01:56:00,21.6,8.4,29.85,WNW,293,0.0,5.0,56,0.00,,,0.00,WeatherCatV1.11B39,2013-03-15 05:56:00,
2013-03-15 02:01:00,21.6,8.0,29.85,WNW,301,2.0,4.0,55,0.00,,,0.00,WeatherCatV1.11B39,2013-03-15 06:01:00,
2013-03-15 02:06:00,21.6,8.0,29.85,WNW,290,0.0,8.0,55,0.00,,,0.00,WeatherCatV1.11B39,2013-03-15 06:06:00,
2013-03-15 02:11:00,21.6,8.0,29.86,WNW,303,0.0,2.0,55,0.00,,,0.00,WeatherCatV1.11B39,2013-03-15 06:11:00,
2013-03-15 02:16:00,21.6,7.1,29.86,WNW,292,0.0,10.0,53,0.00,,,0.00,WeatherCatV1.11B39,2013-03-15 06:16:00,
2013-03-15 02:21:00,21.6,7.1,29.86,North,359,0.0,1.0,53,0.00,,,0.00,WeatherCatV1.11B39,2013-03-15 06:21:00,
2013-03-15 02:26:00,21.6,7.1,29.86,WNW,287,0.0,0.0,53,0.00,,,0.00,WeatherCatV1.11B39,2013-03-15 06:26:00,
2013-03-15 02:31:00,21.6,7.1,29.86,WNW,286,0.0,3.0,53,0.00,,,0.00,WeatherCatV1.11B39,2013-03-15 06:31:00,
2013-03-15 02:36:00,21.6,7.1,29.86,NNW,346,9.0,11.0,53,0.00,,,0.00,WeatherCatV1.11B39,2013-03-15 06:36:00,
2013-03-15 02:41:00,21.6,7.1,29.86,West,276,0.0,3.0,53,0.00,,,0.00,WeatherCatV1.11B39,2013-03-15 06:41:00,
2013-03-15 02:46:00,21.4,6.5,29.86,WNW,302,0.0,8.0,52,0.00,,,0.00,WeatherCatV1.11B39,2013-03-15 06:46:00,
2013-03-15 02:51:00,21.4,7.0,29.86,NNW,331,0.0,4.0,53,0.00,,,0.00,WeatherCatV1.11B39,2013-03-15 06:51:00,
2013-03-15 02:56:00,21.3,6.9,29.86,NW,318,1.0,9.0,53,0.00,,,0.00,WeatherCatV1.11B39,2013-03-15 06:56:00,
2013-03-15 03:01:00,21.3,6.9,29.86,NW,322,0.0,0.0,53,0.00,,,0.00,WeatherCatV1.11B39,2013-03-15 07:01:00,
2013-03-15 03:06:00,21.3,6.9,29.86,West,264,0.0,4.0,53,0.00,,,0.00,WeatherCatV1.11B39,2013-03-15 07:06:00,
2013-03-15 03:11:00,21.1,6.7,29.86,WNW,291,0.0,0.0,53,0.00,,,0.00,WeatherCatV1.11B39,2013-03-15 07:11:00,
2013-03-15 03:16:00,21.1,6.7,29.86,NW,307,0.0,0.0,53,0.00,,,0.00,WeatherCatV1.11B39,2013-03-15 07:16:00,
2013-03-15 03:21:00,21.0,6.6,29.86,WNW,295,0.0,3.0,53,0.00,,,0.00,WeatherCatV1.11B39,2013-03-15 07:21:00,
2013-03-15 03:26:00,21.0,6.6,29.85,NW,311,4.0,10.0,53,0.00,,,0.00,WeatherCatV1.11B39,2013-03-15 07:26:00,
2013-03-15 03:31:00,20.8,6.4,29.86,WNW,296,0.0,7.0,53,0.00,,,0.00,WeatherCatV1.11B39,2013-03-15 07:31:00,
2013-03-15 03:36:00,20.8,6.0,29.85,NW,308,0.0,3.0,52,0.00,,,0.00,WeatherCatV1.11B39,2013-03-15 07:36:00,
2013-03-15 03:41:00,20.7,5.9,29.85,WNW,293,1.0,2.0,52,0.00,,,0.00,WeatherCatV1.11B39,2013-03-15 07:41:00,
2013-03-15 03:46:00,20.7,5.9,29.85,WNW,294,0.0,3.0,52,0.00,,,0.00,WeatherCatV1.11B39,2013-03-15 07:46:00,
2013-03-15 03:51:00,20.7,5.9,29.85,NNW,341,0.0,0.0,52,0.00,,,0.00,WeatherCatV1.11B39,2013-03-15 07:51:00,
2013-03-15 03:56:00,20.5,5.7,29.85,NW,308,4.0,5.0,52,0.00,,,0.00,WeatherCatV1.11B39,2013-03-15 07:56:00,
2013-03-15 04:01:00,20.5,5.7,29.85,WNW,289,0.0,0.0,52,0.00,,,0.00,WeatherCatV1.11B39,2013-03-15 08:01:00,
2013-03-15 04:06:00,20.4,5.2,29.85,WNW,295,0.0,0.0,51,0.00,,,0.00,WeatherCatV1.11B39,2013-03-15 08:06:00,
2013-03-15 04:11:00,20.1,4.9,29.85,NW,325,0.0,0.0,51,0.00,,,0.00,WeatherCatV1.11B39,2013-03-15 08:11:00,
2013-03-15 04:16:00,20.1,4.9,29.85,WNW,283,2.0,3.0,51,0.00,,,0.00,WeatherCatV1.11B39,2013-03-15 08:16:00,
2013-03-15 04:21:00,20.0,4.8,29.85,WNW,294,6.0,8.0,51,0.00,,,0.00,WeatherCatV1.11B39,2013-03-15 08:21:00,
2013-03-15 04:26:00,20.0,4.4,29.86,NW,307,0.0,0.0,50,0.00,,,0.00,WeatherCatV1.11B39,2013-03-15 08:26:00,
2013-03-15 04:31:00,20.0,4.4,29.85,WNW,299,0.0,0.0,50,0.00,,,0.00,WeatherCatV1.11B39,2013-03-15 08:31:00,
2013-03-15 04:36:00,19.8,4.6,29.86,WNW,296,0.0,1.0,51,0.00,,,0.00,WeatherCatV1.11B39,2013-03-15 08:36:00,
2013-03-15 04:41:00,19.8,4.2,29.86,NW,310,0.0,7.0,50,0.00,,,0.00,WeatherCatV1.11B39,2013-03-15 08:41:00,
2013-03-15 04:46:00,19.8,4.2,29.86,NNW,344,0.0,0.0,50,0.00,,,0.00,WeatherCatV1.11B39,2013-03-15 08:46:00,
2013-03-15 04:51:00,19.8,4.6,29.86,NNW,335,0.0,3.0,51,0.00,,,0.00,WeatherCatV1.11B39,2013-03-15 08:51:00,
2013-03-15 04:56:00,19.7,4.5,29.85,NW,314,0.0,0.0,51,0.00,,,0.00,WeatherCatV1.11B39,2013-03-15 08:56:00,
2013-03-15 05:01:00,19.7,4.5,29.85,WNW,290,0.0,0.0,51,0.00,,,0.00,WeatherCatV1.11B39,2013-03-15 09:01:00,
2013-03-15 05:06:00,19.5,4.4,29.86,WNW,294,0.0,0.0,51,0.00,,,0.00,WeatherCatV1.11B39,2013-03-15 09:06:00,
2013-03-15 05:11:00,19.5,4.4,29.86,NW,307,0.0,0.0,51,0.00,,,0.00,WeatherCatV1.11B39,2013-03-15 09:11:00,
2013-03-15 05:16:00,19.5,4.4,29.86,WNW,286,3.0,3.0,51,0.00,,,0.00,WeatherCatV1.11B39,2013-03-15 09:16:00,
2013-03-15 05:21:00,19.5,4.8,29.86,WNW,298,1.0,3.0,52,0.00,,,0.00,WeatherCatV1.11B39,2013-03-15 09:21:00,
2013-03-15 05:26:00,19.5,4.8,29.86,West,276,0.0,4.0,52,0.00,,,0.00,WeatherCatV1.11B39,2013-03-15 09:26:00,
2013-03-15 05:31:00,19.5,4.4,29.86,NW,321,0.0,0.0,51,0.00,,,0.00,WeatherCatV1.11B39,2013-03-15 09:31:00,
2013-03-15 05:36:00,19.4,4.3,29.86,NW,311,0.0,0.0,51,0.00,,,0.00,WeatherCatV1.11B39,2013-03-15 09:36:00,
2013-03-15 05:41:00,19.3,4.6,29.86,WNW,293,0.0,5.0,52,0.00,,,0.00,WeatherCatV1.11B39,2013-03-15 09:41:00,
2013-03-15 05:46:00,19.3,4.2,29.86,WNW,292,0.0,6.0,51,0.00,,,0.00,WeatherCatV1.11B39,2013-03-15 09:46:00,
2013-03-15 05:51:00,19.3,4.2,29.86,WNW,299,0.0,0.0,51,0.00,,,0.00,WeatherCatV1.11B39,2013-03-15 09:51:00,
2013-03-15 05:56:00,19.2,4.1,29.86,WNW,300,0.0,0.0,51,0.00,,,0.00,WeatherCatV1.11B39,2013-03-15 09:56:00,
2013-03-15 06:01:00,19.2,4.9,29.87,NW,310,0.0,0.0,53,0.00,,,0.00,WeatherCatV1.11B39,2013-03-15 10:01:00,
2013-03-15 06:06:00,19.2,4.5,29.87,WNW,289,0.0,4.0,52,0.00,,,0.00,WeatherCatV1.11B39,2013-03-15 10:06:00,
2013-03-15 06:11:00,19.2,4.9,29.86,WNW,288,4.0,5.0,53,0.00,,,0.00,WeatherCatV1.11B39,2013-03-15 10:11:00,
2013-03-15 06:16:00,19.2,4.9,29.87,WNW,291,0.0,4.0,53,0.00,,,0.00,WeatherCatV1.11B39,2013-03-15 10:16:00,
2013-03-15 06:21:00,19.0,4.7,29.87,WNW,290,0.0,4.0,53,0.00,,,0.00,WeatherCatV1.11B39,2013-03-15 10:21:00,
2013-03-15 06:26:00,19.0,4.7,29.87,WNW,285,0.0,2.0,53,0.00,,,0.00,WeatherCatV1.11B39,2013-03-15 10:26:00,
2013-03-15 06:31:00,18.9,5.0,29.87,WNW,287,2.0,2.0,54,0.00,,,0.00,WeatherCatV1.11B39,2013-03-15 10:31:00,
2013-03-15 06:36:00,18.9,5.0,29.87,WNW,284,0.0,0.0,54,0.00,,,0.00,WeatherCatV1.11B39,2013-03-15 10:36:00,
2013-03-15 06:41:00,18.7,5.2,29.87,WNW,285,0.0,0.0,55,0.00,,,0.00,WeatherCatV1.11B39,2013-03-15 10:41:00,
2013-03-15 06:46:00,18.7,5.2,29.87,WNW,288,3.0,6.0,55,0.00,,,0.00,WeatherCatV1.11B39,2013-03-15 10:46:00,
2013-03-15 06:51:00,18.7,5.6,29.87,West,278,0.0,7.0,56,0.00,,,0.00,WeatherCatV1.11B39,2013-03-15 10:51:00,
2013-03-15 06:56:00,18.7,5.2,29.87,WNW,283,0.0,7.0,55,0.00,,,0.00,WeatherCatV1.11B39,2013-03-15 10:56:00,
2013-03-15 07:01:00,18.5,5.1,29.87,West,280,5.0,8.0,55,0.00,,,0.00,WeatherCatV1.11B39,2013-03-15 11:01:00,
2013-03-15 07:06:00,18.5,5.1,29.87,WNW,282,4.0,7.0,55,0.00,,,0.00,WeatherCatV1.11B39,2013-03-15 11:06:00,
2013-03-15 07:11:00,18.6,5.2,29.87,West,274,3.0,5.0,55,0.00,,,0.00,WeatherCatV1.11B39,2013-03-15 11:11:00,
2013-03-15 07:16:00,18.6,5.5,29.87,West,280,5.0,7.0,56,0.00,,,0.00,WeatherCatV1.11B39,2013-03-15 11:16:00,
2013-03-15 07:21:00,18.6,5.2,29.87,West,272,0.0,8.0,55,0.00,,,0.00,WeatherCatV1.11B39,2013-03-15 11:21:00,
2013-03-15 07:26:00,18.7,5.2,29.87,West,280,2.0,7.0,55,0.00,,,0.00,WeatherCatV1.11B39,2013-03-15 11:26:00,
2013-03-15 07:31:00,18.7,5.2,29.87,WSW,251,3.0,7.0,55,0.00,,,0.00,WeatherCatV1.11B39,2013-03-15 11:31:00,
2013-03-15 07:36:00,18.7,5.6,29.88,West,279,8.0,8.0,56,0.00,,,0.00,WeatherCatV1.11B39,2013-03-15 11:36:00,
2013-03-15 07:41:00,18.7,5.2,29.87,WNW,293,4.0,5.0,55,0.00,,,0.00,WeatherCatV1.11B39,2013-03-15 11:41:00,
2013-03-15 07:46:00,18.9,5.4,29.88,WNW,288,3.0,3.0,55,0.00,,,0.00,WeatherCatV1.11B39,2013-03-15 11:46:00,
2013-03-15 07:51:00,19.0,5.5,29.88,WNW,288,0.0,4.0,55,0.00,,,0.00,WeatherCatV1.11B39,2013-03-15 11:51:00,
2013-03-15 07:56:00,19.2,5.7,29.87,WNW,289,0.0,0.0,55,0.00,,,0.00,WeatherCatV1.11B39,2013-03-15 11:56:00,
2013-03-15 08:01:00,19.4,5.9,29.87,NW,313,0.0,0.0,55,0.00,,,0.00,WeatherCatV1.11B39,2013-03-15 12:01:00,
2013-03-15 08:06:00,19.5,5.2,29.87,NW,324,0.0,0.0,53,0.00,,,0.00,WeatherCatV1.11B39,2013-03-15 12:06:00,
2013-03-15 08:11:00,20.0,5.7,29.87,WNW,286,0.0,6.0,53,0.00,,,0.00,WeatherCatV1.11B39,2013-03-15 12:11:00,
2013-03-15 08:16:00,20.4,5.6,29.87,WNW,282,0.0,7.0,52,0.00,,,0.00,WeatherCatV1.11B39,2013-03-15 12:16:00,
2013-03-15 08:21:00,20.5,5.7,29.87,NW,316,0.0,0.0,52,0.00,,,0.00,WeatherCatV1.11B39,2013-03-15 12:21:00,
2013-03-15 08:26:00,20.7,5.9,29.88,WNW,284,5.0,6.0,52,0.00,,,0.00,WeatherCatV1.11B39,2013-03-15 12:26:00,
2013-03-15 08:31:00,20.8,5.6,29.88,WNW,292,0.0,0.0,51,0.00,,,0.00,WeatherCatV1.11B39,2013-03-15 12:31:00,
2013-03-15 08:36:00,20.8,5.6,29.87,West,278,0.0,7.0,51,0.00,,,0.00,WeatherCatV1.11B39,2013-03-15 12:36:00,
2013-03-15 08:41:00,21.0,5.7,29.87,WNW,283,0.0,4.0,51,0.00,,,0.00,WeatherCatV1.11B39,2013-03-15 12:41:00,
2013-03-15 08:46:00,21.1,5.8,29.87,WNW,283,0.0,0.0,51,0.00,,,0.00,WeatherCatV1.11B39,2013-03-15 12:46:00,
2013-03-15 08:51:00,21.5,5.8,29.87,NNE,25,0.0,0.0,50,0.00,,,0.00,WeatherCatV1.11B39,2013-03-15 12:51:00,
2013-03-15 08:56:00,21.8,6.1,29.87,NNW,341,0.0,0.0,50,0.00,,,0.00,WeatherCatV1.11B39,2013-03-15 12:56:00,
2013-03-15 09:01:00,22.1,6.8,29.88,WNW,300,0.0,0.0,51,0.00,,,0.00,WeatherCatV1.11B39,2013-03-15 13:01:00,
2013-03-15 09:06:00,22.2,6.0,29.88,NW,323,0.0,0.0,49,0.00,,,0.00,WeatherCatV1.11B39,2013-03-15 13:06:00,
2013-03-15 09:11:00,22.2,6.4,29.88,West,279,0.0,0.0,50,0.00,,,0.00,WeatherCatV1.11B39,2013-03-15 13:11:00,
2013-03-15 09:16:00,22.2,6.0,29.87,WNW,285,1.0,6.0,49,0.00,,,0.00,WeatherCatV1.11B39,2013-03-15 13:16:00,
2013-03-15 09:21:00,22.2,6.0,29.87,WNW,287,0.0,7.0,49,0.00,,,0.00,WeatherCatV1.11B39,2013-03-15 13:21:00,
2013-03-15 09:26:00,22.4,6.2,29.87,West,278,0.0,5.0,49,0.00,,,0.00,WeatherCatV1.11B39,2013-03-15 13:26:00,
2013-03-15 09:31:00,22.7,6.0,29.87,West,261,0.0,0.0,48,0.00,,,0.00,WeatherCatV1.11B39,2013-03-15 13:31:00,
2013-03-15 09:36:00,23.1,6.4,29.86,West,275,0.0,0.0,48,0.00,,,0.00,WeatherCatV1.11B39,2013-03-15 13:36:00,
2013-03-15 09:41:00,23.4,6.2,29.87,West,281,0.0,4.0,47,0.00,,,0.00,WeatherCatV1.11B39,2013-03-15 13:41:00,
2013-03-15 09:46:00,23.3,6.1,29.87,WNW,283,5.0,7.0,47,0.00,,,0.00,WeatherCatV1.11B39,2013-03-15 13:46:00,
2013-03-15 09:51:00,23.3,6.1,29.87,West,277,7.0,9.0,47,0.00,,,0.00,WeatherCatV1.11B39,2013-03-15 13:51:00,
2013-03-15 09:56:00,23.7,6.5,29.86,WNW,285,0.0,0.0,47,0.00,,,0.00,WeatherCatV1.11B39,2013-03-15 13:56:00,
2013-03-15 10:01:00,24.3,7.0,29.86,West,280,0.0,7.0,47,0.00,,,0.00,WeatherCatV1.11B39,2013-03-15 14:01:00,
2013-03-15 10:06:00,24.7,6.4,29.86,NNE,29,0.0,0.0,45,0.00,,,0.00,WeatherCatV1.11B39,2013-03-15 14:06:00,
2013-03-15 10:11:00,24.9,5.1,29.85,NNE,33,0.0,0.0,42,0.00,,,0.00,WeatherCatV1.11B39,2013-03-15 14:11:00,
2013-03-15 10:16:00,25.5,7.2,29.85,WNW,285,0.0,0.0,45,0.00,,,0.00,WeatherCatV1.11B39,2013-03-15 14:16:00,
2013-03-15 10:21:00,25.9,5.5,29.85,WNW,288,0.0,0.0,41,0.00,,,0.00,WeatherCatV1.11B39,2013-03-15 14:21:00,
2013-03-15 10:26:00,26.4,5.4,29.85,NNW,329,0.0,2.0,40,0.00,,,0.00,WeatherCatV1.11B39,2013-03-15 14:26:00,
2013-03-15 10:31:00,26.8,5.8,29.85,WNW,289,0.0,5.0,40,0.00,,,0.00,WeatherCatV1.11B39,2013-03-15 14:31:00,
2013-03-15 10:36:00,26.8,5.2,29.85,NNW,335,0.0,3.0,39,0.00,,,0.00,WeatherCatV1.11B39,2013-03-15 14:36:00,
2013-03-15 10:41:00,26.8,4.6,29.84,North,359,0.0,0.0,38,0.00,,,0.00,WeatherCatV1.11B39,2013-03-15 14:41:00,
2013-03-15 10:46:00,27.0,5.4,29.85,WNW,286,0.0,0.0,39,0.00,,,0.00,WeatherCatV1.11B39,2013-03-15 14:46:00,
2013-03-15 10:51:00,27.3,4.5,29.84,WSW,258,0.0,5.0,37,0.00,,,0.00,WeatherCatV1.11B39,2013-03-15 14:51:00,
2013-03-15 10:56:00,27.6,5.4,29.84,WSW,257,0.0,0.0,38,0.00,,,0.00,WeatherCatV1.11B39,2013-03-15 14:56:00,
2013-03-15 11:01:00,27.7,3.7,29.83,WSW,257,0.0,0.0,35,0.00,,,0.00,WeatherCatV1.11B39,2013-03-15 15:01:00,
2013-03-15 11:06:00,28.0,4.5,29.83,West,278,3.0,5.0,36,0.00,,,0.00,WeatherCatV1.11B39,2013-03-15 15:06:00,
2013-03-15 11:11:00,28.6,6.2,29.83,WNW,286,0.0,4.0,38,0.00,,,0.00,WeatherCatV1.11B39,2013-03-15 15:11:00,
2013-03-15 11:17:00,29.0,5.4,29.83,WNW,288,0.0,0.0,36,0.00,,,0.00,WeatherCatV1.11B39,2013-03-15 15:17:00,
2013-03-15 11:22:00,28.9,5.3,29.83,WSW,251,0.0,3.0,36,0.00,,,0.00,WeatherCatV1.11B39,2013-03-15 15:22:00,
2013-03-15 11:26:00,28.9,4.1,29.83,WNW,288,0.0,2.0,34,0.00,,,0.00,WeatherCatV1.11B39,2013-03-15 15:26:00,
2013-03-15 11:31:00,29.2,5.0,29.83,SW,235,0.0,0.0,35,0.00,,,0.00,WeatherCatV1.11B39,2013-03-15 15:31:00,
2013-03-15 11:36:00,29.5,4.0,29.82,WNW,285,7.0,7.0,33,0.00,,,0.00,WeatherCatV1.11B39,2013-03-15 15:36:00,
2013-03-15 11:41:00,30.0,5.1,29.82,WNW,286,0.0,4.0,34,0.00,,,0.00,WeatherCatV1.11B39,2013-03-15 15:41:00,
2013-03-15 11:46:00,30.2,4.6,29.82,WNW,290,4.0,9.0,33,0.00,,,0.00,WeatherCatV1.11B39,2013-03-15 15:46:00,
2013-03-15 11:51:00,30.8,4.5,29.81,West,259,7.0,7.0,32,0.00,,,0.00,WeatherCatV1.11B39,2013-03-15 15:51:00,
2013-03-15 11:56:00,30.7,5.0,29.81,West,262,13.0,16.0,33,0.00,,,0.00,WeatherCatV1.11B39,2013-03-15 15:56:00,
2013-03-15 12:01:00,30.7,5.7,29.80,WSW,244,4.0,10.0,34,0.00,,,0.00,WeatherCatV1.11B39,2013-03-15 16:01:00,
2013-03-15 12:06:00,30.5,4.9,29.80,West,263,6.0,13.0,33,0.00,,,0.00,WeatherCatV1.11B39,2013-03-15 16:06:00,
2013-03-15 12:11:00,30.7,5.0,29.79,WSW,249,3.0,5.0,33,0.00,,,0.00,WeatherCatV1.11B39,2013-03-15 16:11:00,
2013-03-15 12:16:00,31.4,5.0,29.79,WSW,253,7.0,8.0,32,0.00,,,0.00,WeatherCatV1.11B39,2013-03-15 16:16:00,
2013-03-15 12:22:00,31.7,5.3,29.79,West,281,3.0,6.0,32,0.00,,,0.00,WeatherCatV1.11B39,2013-03-15 16:22:00,
2013-03-15 12:27:00,32.4,5.9,29.78,WNW,294,0.0,3.0,32,0.00,,,0.00,WeatherCatV1.11B39,2013-03-15 16:27:00,
2013-03-15 12:32:00,32.6,4.6,29.78,West,266,0.0,5.0,30,0.00,,,0.00,WeatherCatV1.11B39,2013-03-15 16:32:00,
2013-03-15 12:37:00,32.3,4.4,29.78,WSW,253,4.0,6.0,30,0.00,,,0.00,WeatherCatV1.11B39,2013-03-15 16:37:00,
2013-03-15 12:42:00,32.4,5.9,29.78,WSW,249,3.0,5.0,32,0.00,,,0.00,WeatherCatV1.11B39,2013-03-15 16:42:00,
2013-03-15 12:47:00,33.5,6.8,29.77,WNW,287,6.0,10.0,32,0.00,,,0.00,WeatherCatV1.11B39,2013-03-15 16:47:00,
2013-03-15 12:52:00,34.3,3.8,29.77,WNW,283,4.0,10.0,27,0.00,,,0.00,WeatherCatV1.11B39,2013-03-15 16:52:00,
2013-03-15 12:57:00,34.4,4.7,29.77,WSW,248,0.0,8.0,28,0.00,,,0.00,WeatherCatV1.11B39,2013-03-15 16:57:00,
2013-03-15 13:02:00,34.3,5.4,29.77,WSW,258,4.0,7.0,29,0.00,,,0.00,WeatherCatV1.11B39,2013-03-15 17:02:00,
2013-03-15 13:07:00,34.0,3.6,29.76,WSW,244,5.0,11.0,27,0.00,,,0.00,WeatherCatV1.11B39,2013-03-15 17:07:00,
2013-03-15 13:12:00,33.8,3.4,29.76,WSW,250,0.0,7.0,27,0.00,,,0.00,WeatherCatV1.11B39,2013-03-15 17:12:00,
2013-03-15 13:17:00,34.0,3.6,29.75,WNW,285,8.0,10.0,27,0.00,,,0.00,WeatherCatV1.11B39,2013-03-15 17:17:00,
2013-03-15 13:22:00,34.4,3.9,29.75,West,270,0.0,8.0,27,0.00,,,0.00,WeatherCatV1.11B39,2013-03-15 17:22:00,
2013-03-15 13:27:00,35.7,5.8,29.75,West,277,5.0,11.0,28,0.00,,,0.00,WeatherCatV1.11B39,2013-03-15 17:27:00,
2013-03-15 13:32:00,36.6,5.8,29.74,WSW,249,8.0,13.0,27,0.00,,,0.00,WeatherCatV1.11B39,2013-03-15 17:32:00,
2013-03-15 13:37:00,36.1,6.2,29.74,WNW,292,8.0,14.0,28,0.00,,,0.00,WeatherCatV1.11B39,2013-03-15 17:37:00,
2013-03-15 13:42:00,35.7,5.8,29.74,WSW,256,9.0,12.0,28,0.00,,,0.00,WeatherCatV1.11B39,2013-03-15 17:42:00,
2013-03-15 13:47:00,35.3,2.2,29.73,WSW,245,10.0,10.0,24,0.00,,,0.00,WeatherCatV1.11B39,2013-03-15 17:47:00,
2013-03-15 13:52:00,35.1,3.7,29.73,SW,233,5.0,14.0,26,0.00,,,0.00,WeatherCatV1.11B39,2013-03-15 17:52:00,
2013-03-15 13:57:00,35.1,4.5,29.72,WSW,237,5.0,15.0,27,0.00,,,0.00,WeatherCatV1.11B39,2013-03-15 17:57:00,
2013-03-15 14:02:00,35.8,4.3,29.72,West,277,4.0,12.0,26,0.00,,,0.00,WeatherCatV1.11B39,2013-03-15 18:02:00,
2013-03-15 14:07:00,36.5,5.7,29.71,WNW,290,3.0,9.0,27,0.00,,,0.00,WeatherCatV1.11B39,2013-03-15 18:07:00,
2013-03-15 14:12:00,36.8,6.0,29.71,West,268,9.0,9.0,27,0.00,,,0.00,WeatherCatV1.11B39,2013-03-15 18:12:00,
2013-03-15 14:17:00,36.2,5.5,29.71,WSW,242,0.0,6.0,27,0.00,,,0.00,WeatherCatV1.11B39,2013-03-15 18:17:00,
2013-03-15 14:22:00,36.4,5.6,29.71,WSW,257,8.0,11.0,27,0.00,,,0.00,WeatherCatV1.11B39,2013-03-15 18:22:00,
2013-03-15 14:27:00,36.9,6.1,29.71,West,278,11.0,15.0,27,0.00,,,0.00,WeatherCatV1.11B39,2013-03-15 18:27:00,
2013-03-15 14:32:00,37.0,7.0,29.70,WSW,258,13.0,13.0,28,0.00,,,0.00,WeatherCatV1.11B39,2013-03-15 18:32:00,
2013-03-15 14:38:00,36.8,9.7,29.70,WSW,239,5.0,9.0,32,0.00,,,0.00,WeatherCatV1.11B39,2013-03-15 18:38:00,
2013-03-15 14:43:00,36.8,9.7,29.69,WSW,238,9.0,13.0,32,0.00,,,0.00,WeatherCatV1.11B39,2013-03-15 18:43:00,
2013-03-15 14:48:00,37.0,10.6,29.70,WSW,252,8.0,13.0,33,0.00,,,0.00,WeatherCatV1.11B39,2013-03-15 18:48:00,
2013-03-15 14:53:00,37.0,10.6,29.70,WSW,247,4.0,8.0,33,0.00,,,0.00,WeatherCatV1.11B39,2013-03-15 18:53:00,
2013-03-15 14:58:00,37.3,10.9,29.69,WSW,256,5.0,9.0,33,0.00,,,0.00,WeatherCatV1.11B39,2013-03-15 18:58:00,
2013-03-15 15:03:00,37.0,10.6,29.69,WSW,255,11.0,14.0,33,0.00,,,0.00,WeatherCatV1.11B39,2013-03-15 19:03:00,
2013-03-15 15:08:00,36.8,11.1,29.69,West,259,14.0,16.0,34,0.00,,,0.00,WeatherCatV1.11B39,2013-03-15 19:08:00,
2013-03-15 15:13:00,37.1,13.9,29.69,West,269,6.0,14.0,38,0.00,,,0.00,WeatherCatV1.11B39,2013-03-15 19:13:00,
2013-03-15 15:18:00,37.3,14.0,29.69,West,271,3.0,7.0,38,0.00,,,0.00,WeatherCatV1.11B39,2013-03-15 19:18:00,
2013-03-15 15:23:00,37.1,13.3,29.69,WSW,257,5.0,8.0,37,0.00,,,0.00,WeatherCatV1.11B39,2013-03-15 19:23:00,
2013-03-15 15:28:00,37.0,13.8,29.68,WSW,253,5.0,11.0,38,0.00,,,0.00,WeatherCatV1.11B39,2013-03-15 19:28:00,
2013-03-15 15:33:00,37.1,14.5,29.68,WSW,250,9.0,12.0,39,0.00,,,0.00,WeatherCatV1.11B39,2013-03-15 19:33:00,
2013-03-15 15:38:00,37.1,14.5,29.68,WSW,257,4.0,7.0,39,0.00,,,0.00,WeatherCatV1.11B39,2013-03-15 19:38:00,
2013-03-15 15:43:00,37.4,14.1,29.68,WSW,254,1.0,5.0,38,0.00,,,0.00,WeatherCatV1.11B39,2013-03-15 19:43:00,
2013-03-15 15:48:00,37.5,12.4,29.68,WNW,284,5.0,9.0,35,0.00,,,0.00,WeatherCatV1.11B39,2013-03-15 19:48:00,
2013-03-15 15:53:00,37.5,14.2,29.67,West,279,5.0,11.0,38,0.00,,,0.00,WeatherCatV1.11B39,2013-03-15 19:53:00,
2013-03-15 15:58:00,37.8,13.3,29.68,West,259,5.0,16.0,36,0.00,,,0.00,WeatherCatV1.11B39,2013-03-15 19:58:00,
2013-03-15 16:03:00,37.8,14.5,29.67,WSW,244,7.0,12.0,38,0.00,,,0.00,WeatherCatV1.11B39,2013-03-15 20:03:00,
2013-03-15 16:08:00,37.4,12.9,29.67,WSW,250,10.0,17.0,36,0.00,,,0.00,WeatherCatV1.11B39,2013-03-15 20:08:00,
2013-03-15 16:13:00,37.4,13.5,29.66,WSW,237,2.0,16.0,37,0.00,,,0.00,WeatherCatV1.11B39,2013-03-15 20:13:00,
2013-03-15 16:18:00,37.8,13.3,29.66,WSW,249,7.0,12.0,36,0.00,,,0.00,WeatherCatV1.11B39,2013-03-15 20:18:00,
2013-03-15 16:23:00,37.8,12.6,29.66,WSW,250,6.0,11.0,35,0.00,,,0.00,WeatherCatV1.11B39,2013-03-15 20:23:00,
2013-03-15 16:28:00,37.8,13.3,29.66,WSW,251,3.0,10.0,36,0.00,,,0.00,WeatherCatV1.11B39,2013-03-15 20:28:00,
2013-03-15 16:33:00,38.0,12.8,29.66,WSW,253,8.0,12.0,35,0.00,,,0.00,WeatherCatV1.11B39,2013-03-15 20:33:00,
2013-03-15 16:38:00,37.9,13.4,29.66,WSW,255,8.0,9.0,36,0.00,,,0.00,WeatherCatV1.11B39,2013-03-15 20:38:00,
2013-03-15 16:43:00,37.7,13.8,29.66,WSW,254,12.0,15.0,37,0.00,,,0.00,WeatherCatV1.11B39,2013-03-15 20:43:00,
2013-03-15 16:48:00,37.7,13.8,29.66,WSW,252,9.0,17.0,37,0.00,,,0.00,WeatherCatV1.11B39,2013-03-15 20:48:00,
2013-03-15 16:53:00,37.5,14.2,29.65,West,261,5.0,11.0,38,0.00,,,0.00,WeatherCatV1.11B39,2013-03-15 20:53:00,
2013-03-15 16:58:00,37.5,16.5,29.65,WNW,289,8.0,13.0,42,0.00,,,0.00,WeatherCatV1.11B39,2013-03-15 20:58:00,
2013-03-15 17:03:00,37.4,16.4,29.65,WSW,255,6.0,7.0,42,0.00,,,0.00,WeatherCatV1.11B39,2013-03-15 21:03:00,
2013-03-15 17:08:00,37.2,17.3,29.66,West,274,4.0,7.0,44,0.00,,,0.00,WeatherCatV1.11B39,2013-03-15 21:08:00,
2013-03-15 17:13:00,37.1,17.2,29.66,West,273,6.0,17.0,44,0.00,,,0.00,WeatherCatV1.11B39,2013-03-15 21:13:00,
2013-03-15 17:18:00,36.8,18.5,29.65,West,277,11.0,12.0,47,0.00,,,0.00,WeatherCatV1.11B39,2013-03-15 21:18:00,
2013-03-15 17:23:00,36.5,18.7,29.65,West,268,3.0,16.0,48,0.00,,,0.00,WeatherCatV1.11B39,2013-03-15 21:23:00,
2013-03-15 17:28:00,36.5,19.6,29.65,WSW,255,11.0,18.0,50,0.00,,,0.00,WeatherCatV1.11B39,2013-03-15 21:28:00,
2013-03-15 17:33:00,36.4,20.9,29.65,West,259,13.0,15.0,53,0.00,,,0.00,WeatherCatV1.11B39,2013-03-15 21:33:00,
2013-03-15 17:38:00,36.1,21.5,29.65,West,268,5.0,9.0,55,0.00,,,0.00,WeatherCatV1.11B39,2013-03-15 21:38:00,
2013-03-15 17:43:00,35.9,21.8,29.65,WSW,255,11.0,13.0,56,0.00,,,0.00,WeatherCatV1.11B39,2013-03-15 21:43:00,
2013-03-15 17:48:00,36.0,22.3,29.65,West,278,6.0,14.0,57,0.00,,,0.00,WeatherCatV1.11B39,2013-03-15 21:48:00,
2013-03-15 17:53:00,36.0,22.3,29.65,WSW,256,8.0,17.0,57,0.00,,,0.00,WeatherCatV1.11B39,2013-03-15 21:53:00,
2013-03-15 17:58:00,35.8,22.5,29.65,WSW,253,11.0,17.0,58,0.00,,,0.00,WeatherCatV1.11B39,2013-03-15 21:58:00,
2013-03-15 18:03:00,36.0,22.7,29.65,West,259,5.0,16.0,58,0.00,,,0.00,WeatherCatV1.11B39,2013-03-15 22:03:00,
2013-03-15 18:08:00,36.0,22.7,29.65,West,260,8.0,17.0,58,0.00,,,0.00,WeatherCatV1.11B39,2013-03-15 22:08:00,
2013-03-15 18:13:00,36.0,22.7,29.65,WSW,250,8.0,12.0,58,0.00,,,0.00,WeatherCatV1.11B39,2013-03-15 22:13:00,
2013-03-15 18:18:00,36.0,22.7,29.65,WSW,253,7.0,17.0,58,0.00,,,0.00,WeatherCatV1.11B39,2013-03-15 22:18:00,
2013-03-15 18:23:00,35.9,22.6,29.65,WSW,252,13.0,13.0,58,0.00,,,0.00,WeatherCatV1.11B39,2013-03-15 22:23:00,
2013-03-15 18:28:00,35.8,22.5,29.65,WSW,255,7.0,8.0,58,0.00,,,0.00,WeatherCatV1.11B39,2013-03-15 22:28:00,
2013-03-15 18:33:00,35.8,22.9,29.65,WSW,243,0.0,6.0,59,0.00,,,0.00,WeatherCatV1.11B39,2013-03-15 22:33:00,
2013-03-15 18:38:00,35.8,22.5,29.65,SW,232,7.0,8.0,58,0.00,,,0.00,WeatherCatV1.11B39,2013-03-15 22:38:00,
2013-03-15 18:43:00,35.8,22.9,29.65,WSW,250,8.0,16.0,59,0.00,,,0.00,WeatherCatV1.11B39,2013-03-15 22:43:00,
2013-03-15 18:48:00,35.9,23.4,29.66,WSW,247,6.0,12.0,60,0.00,,,0.00,WeatherCatV1.11B39,2013-03-15 22:48:00,
2013-03-15 18:53:00,35.7,23.6,29.67,West,272,1.0,12.0,61,0.00,,,0.00,WeatherCatV1.11B39,2013-03-15 22:53:00,
2013-03-15 18:58:00,35.5,23.8,29.66,WSW,255,8.0,9.0,62,0.00,,,0.00,WeatherCatV1.11B39,2013-03-15 22:58:00,
2013-03-15 19:03:00,35.5,23.8,29.66,WSW,250,5.0,10.0,62,0.00,,,0.00,WeatherCatV1.11B39,2013-03-15 23:03:00,
2013-03-15 19:08:00,35.5,23.8,29.66,WNW,288,0.0,6.0,62,0.00,,,0.00,WeatherCatV1.11B39,2013-03-15 23:08:00,
2013-03-15 19:13:00,35.4,24.1,29.66,WSW,246,5.0,7.0,63,0.00,,,0.00,WeatherCatV1.11B39,2013-03-15 23:13:00,
2013-03-15 19:18:00,35.4,24.1,29.66,WSW,257,7.0,8.0,63,0.00,,,0.00,WeatherCatV1.11B39,2013-03-15 23:18:00,
2013-03-15 19:23:00,35.4,24.1,29.66,WSW,256,0.0,6.0,63,0.00,,,0.00,WeatherCatV1.11B39,2013-03-15 23:23:00,
2013-03-15 19:28:00,35.3,24.4,29.66,WSW,238,6.0,10.0,64,0.00,,,0.00,WeatherCatV1.11B39,2013-03-15 23:28:00,
2013-03-15 19:33:00,35.3,24.4,29.67,West,270,3.0,5.0,64,0.00,,,0.00,WeatherCatV1.11B39,2013-03-15 23:33:00,
2013-03-15 19:38:00,35.1,24.2,29.67,West,279,7.0,8.0,64,0.00,,,0.00,WeatherCatV1.11B39,2013-03-15 23:38:00,
2013-03-15 19:43:00,35.3,24.7,29.67,WSW,247,8.0,12.0,65,0.00,,,0.00,WeatherCatV1.11B39,2013-03-15 23:43:00,
2013-03-15 19:48:00,35.4,24.8,29.67,West,280,12.0,14.0,65,0.00,,,0.00,WeatherCatV1.11B39,2013-03-15 23:48:00,
2013-03-15 19:53:00,35.4,24.8,29.67,WSW,250,3.0,6.0,65,0.00,,,0.00,WeatherCatV1.11B39,2013-03-15 23:53:00,
2013-03-15 19:58:00,35.2,25.0,29.67,WSW,252,12.0,12.0,66,0.00,,,0.00,WeatherCatV1.11B39,2013-03-15 23:58:00,
2013-03-15 20:03:00,35.2,25.0,29.67,WSW,250,10.0,12.0,66,0.00,,,0.00,WeatherCatV1.11B39,2013-03-16 00:03:00,
2013-03-15 20:08:00,35.1,25.3,29.67,WSW,253,9.0,10.0,67,0.00,,,0.00,WeatherCatV1.11B39,2013-03-16 00:08:00,
2013-03-15 20:13:00,35.0,25.5,29.67,West,280,11.0,11.0,68,0.00,,,0.00,WeatherCatV1.11B39,2013-03-16 00:13:00,
2013-03-15 20:18:00,34.9,25.4,29.67,WSW,247,5.0,9.0,68,0.00,,,0.00,WeatherCatV1.11B39,2013-03-16 00:18:00,
2013-03-15 20:23:00,34.8,25.3,29.67,West,262,8.0,12.0,68,0.00,,,0.00,WeatherCatV1.11B39,2013-03-16 00:23:00,
2013-03-15 20:28:00,34.9,25.4,29.67,WSW,247,7.0,14.0,68,0.00,,,0.00,WeatherCatV1.11B39,2013-03-16 00:28:00,
2013-03-15 20:33:00,35.0,25.5,29.67,WSW,247,7.0,12.0,68,0.00,,,0.00,WeatherCatV1.11B39,2013-03-16 00:33:00,
2013-03-15 20:38:00,34.8,25.3,29.67,WSW,249,8.0,8.0,68,0.00,,,0.00,WeatherCatV1.11B39,2013-03-16 00:38:00,
2013-03-15 20:43:00,34.7,25.6,29.67,WSW,252,12.0,17.0,69,0.00,,,0.00,WeatherCatV1.11B39,2013-03-16 00:43:00,
2013-03-15 20:48:00,34.7,25.6,29.67,West,262,3.0,12.0,69,0.00,,,0.00,WeatherCatV1.11B39,2013-03-16 00:48:00,
2013-03-15 20:53:00,34.8,25.7,29.67,West,272,7.0,11.0,69,0.00,,,0.00,WeatherCatV1.11B39,2013-03-16 00:53:00,
2013-03-15 20:58:00,34.7,25.6,29.67,WSW,251,10.0,14.0,69,0.00,,,0.00,WeatherCatV1.11B39,2013-03-16 00:58:00,
2013-03-15 21:03:00,34.7,25.6,29.67,WNW,284,8.0,13.0,69,0.00,,,0.00,WeatherCatV1.11B39,2013-03-16 01:03:00,
2013-03-15 21:08:00,34.6,25.5,29.67,West,281,8.0,10.0,69,0.00,,,0.00,WeatherCatV1.11B39,2013-03-16 01:08:00,
2013-03-15 21:13:00,34.5,25.7,29.68,WNW,286,11.0,13.0,70,0.00,,,0.00,WeatherCatV1.11B39,2013-03-16 01:13:00,
2013-03-15 21:18:00,34.4,26.3,29.67,West,272,10.0,13.0,72,0.00,,,0.00,WeatherCatV1.11B39,2013-03-16 01:18:00,
2013-03-15 21:23:00,33.8,26.4,29.67,West,278,9.0,15.0,74,0.00,,,0.00,WeatherCatV1.11B39,2013-03-16 01:23:00,
2013-03-15 21:28:00,33.5,27.1,29.67,WNW,284,3.0,7.0,77,0.00,,,0.00,WeatherCatV1.11B39,2013-03-16 01:28:00,
2013-03-15 21:33:00,33.1,27.0,29.67,West,271,5.0,5.0,78,0.00,,,0.00,WeatherCatV1.11B39,2013-03-16 01:33:00,
2013-03-15 21:38:00,32.7,27.2,29.67,WNW,282,0.0,5.0,80,0.00,,,0.00,WeatherCatV1.11B39,2013-03-16 01:38:00,
2013-03-15 21:43:00,32.6,27.4,29.67,WSW,249,1.0,7.0,81,0.00,,,0.00,WeatherCatV1.11B39,2013-03-16 01:43:00,
2013-03-15 21:48:00,32.4,27.5,29.67,West,261,7.0,7.0,82,0.00,,,0.00,WeatherCatV1.11B39,2013-03-16 01:48:00,
2013-03-15 21:53:00,32.3,27.7,29.67,WSW,252,8.0,11.0,83,0.00,,,0.00,WeatherCatV1.11B39,2013-03-16 01:53:00,
2013-03-15 21:58:00,32.1,27.8,29.66,WSW,246,5.0,10.0,84,0.00,,,0.00,WeatherCatV1.11B39,2013-03-16 01:58:00,
2013-03-15 22:03:00,32.4,28.4,29.67,WSW,252,5.0,7.0,85,0.00,,,0.00,WeatherCatV1.11B39,2013-03-16 02:03:00,
2013-03-15 22:08:00,32.4,28.4,29.66,WSW,244,5.0,7.0,85,0.00,,,0.00,WeatherCatV1.11B39,2013-03-16 02:08:00,
2013-03-15 22:13:00,32.4,28.1,29.66,WSW,247,8.0,11.0,84,0.00,,,0.00,WeatherCatV1.11B39,2013-03-16 02:13:00,
2013-03-15 22:18:00,32.6,28.0,29.67,West,275,9.0,9.0,83,0.00,,,0.00,WeatherCatV1.11B39,2013-03-16 02:18:00,
2013-03-15 22:23:00,33.0,28.4,29.67,West,278,7.0,9.0,83,0.00,,,0.00,WeatherCatV1.11B39,2013-03-16 02:23:00,
2013-03-15 22:28:00,32.7,27.8,29.67,West,281,5.0,8.0,82,0.00,,,0.00,WeatherCatV1.11B39,2013-03-16 02:28:00,
2013-03-15 22:33:00,32.7,27.5,29.67,West,268,6.0,8.0,81,0.00,,,0.00,WeatherCatV1.11B39,2013-03-16 02:33:00,
2013-03-15 22:38:00,32.9,27.4,29.67,WSW,255,6.0,6.0,80,0.00,,,0.00,WeatherCatV1.11B39,2013-03-16 02:38:00,
2013-03-15 22:43:00,32.9,27.1,29.67,West,266,4.0,11.0,79,0.00,,,0.00,WeatherCatV1.11B39,2013-03-16 02:43:00,
2013-03-15 22:48:00,33.1,27.3,29.67,WSW,255,5.0,13.0,79,0.00,,,0.00,WeatherCatV1.11B39,2013-03-16 02:48:00,
2013-03-15 22:53:00,33.2,26.8,29.67,West,278,10.0,13.0,77,0.00,,,0.00,WeatherCatV1.11B39,2013-03-16 02:53:00,
2013-03-15 22:58:00,33.3,26.6,29.67,West,281,4.0,7.0,76,0.00,,,0.00,WeatherCatV1.11B39,2013-03-16 02:58:00,
2013-03-15 23:03:00,33.1,26.1,29.68,WNW,284,4.0,11.0,75,0.00,,,0.00,WeatherCatV1.11B39,2013-03-16 03:03:00,
2013-03-15 23:08:00,32.9,25.9,29.67,WNW,289,0.0,5.0,75,0.00,,,0.00,WeatherCatV1.11B39,2013-03-16 03:08:00,
2013-03-15 23:13:00,33.0,25.6,29.67,West,263,6.0,9.0,74,0.00,,,0.00,WeatherCatV1.11B39,2013-03-16 03:13:00,
2013-03-15 23:18:00,32.9,25.5,29.68,WNW,287,6.0,8.0,74,0.00,,,0.00,WeatherCatV1.11B39,2013-03-16 03:18:00,
2013-03-15 23:23:00,32.9,25.2,29.67,WNW,284,2.0,10.0,73,0.00,,,0.00,WeatherCatV1.11B39,2013-03-16 03:23:00,
2013-03-15 23:28:00,33.0,25.0,29.67,WNW,284,6.0,10.0,72,0.00,,,0.00,WeatherCatV1.11B39,2013-03-16 03:28:00,
2013-03-15 23:33:00,32.9,24.9,29.68,WSW,254,0.0,10.0,72,0.00,,,0.00,WeatherCatV1.11B39,2013-03-16 03:33:00,
2013-03-15 23:38:00,33.1,24.7,29.68,WNW,288,0.0,0.0,71,0.00,,,0.00,WeatherCatV1.11B39,2013-03-16 03:38:00,
2013-03-15 23:43:00,33.2,24.8,29.68,WNW,294,0.0,0.0,71,0.00,,,0.00,WeatherCatV1.11B39,2013-03-16 03:43:00,
2013-03-15 23:48:00,33.2,24.5,29.69,WNW,286,0.0,0.0,70,0.00,,,0.00,WeatherCatV1.11B39,2013-03-16 03:48:00,
2013-03-15 23:53:00,33.2,24.5,29.70,WNW,291,0.0,0.0,70,0.00,,,0.00,WeatherCatV1.11B39,2013-03-16 03:53:00,
2013-03-15 23:58:00,33.3,24.9,29.70,North,8,0.0,0.0,71,0.00,,,0.00,WeatherCatV1.11B39,2013-03-16 03:58:00,